Time;durP1;ratioP1;P1;durP2;ratioP2;P2;SDS_P1;SDS_P2;PMS_P1;PMS_P2;Temp;Humidity;BMP_temperature;BMP_pressure;BME280_temperature;BME280_humidity;BME280_pressure;Samples;Min_cycle;Max_cycle;Signal;HPM_P1;HPM_P2
2022/07/18 00:00:26;;;;;;;0.52;0.30;;;;;;;;;;2068813;28;21547;-73
2022/07/18 00:01:45;;;;;;;0.28;0.28;;;;;;;;;;2081166;28;20068;-73
2022/07/18 00:03:04;;;;;;;1.98;0.35;;;;;;;;;;2071845;28;20038;-73
2022/07/18 00:04:23;;;;;;;0.65;0.20;;;;;;;;;;2076662;28;20531;-76
2022/07/18 00:05:42;;;;;;;0.20;0.20;;;;;;;;;;2080613;28;20045;-74
2022/07/18 00:07:01;;;;;;;0.20;0.20;;;;;;;;;;2080836;28;20053;-73
2022/07/18 00:08:20;;;;;;;0.55;0.20;;;;;;;;;;2070807;28;20030;-73
2022/07/18 00:09:39;;;;;;;1.35;0.20;;;;;;;;;;2075802;28;20049;-74
2022/07/18 00:10:58;;;;;;;0.20;0.20;;;;;;;;;;2072692;28;20034;-73
2022/07/18 00:12:17;;;;;;;0.30;0.10;;;;;;;;;;2075984;28;20037;-72
2022/07/18 00:13:36;;;;;;;1.58;0.25;;;;;;;;;;2077868;28;20025;-74
2022/07/18 00:14:55;;;;;;;0.20;0.20;;;;;;;;;;2078306;28;20546;-72
2022/07/18 00:16:14;;;;;;;1.02;0.20;;;;;;;;;;2072280;28;20514;-74
2022/07/18 00:17:33;;;;;;;2.17;0.30;;;;;;;;;;2077096;28;20025;-73
2022/07/18 00:18:52;;;;;;;0.10;0.10;;;;;;;;;;2070610;28;20022;-73
2022/07/18 00:20:11;;;;;;;0.20;0.20;;;;;;;;;;2072165;28;20033;-73
2022/07/18 00:21:30;;;;;;;0.10;0.10;;;;;;;;;;2078897;28;20029;-73
2022/07/18 00:22:48;;;;;;;0.10;0.10;;;;;;;;;;2080084;28;20485;-74
2022/07/18 00:24:07;;;;;;;0.32;0.10;;;;;;;;;;2070564;28;21744;-74
2022/07/18 00:25:26;;;;;;;3.80;0.30;;;;;;;;;;2075902;28;20418;-74
2022/07/18 00:26:45;;;;;;;0.20;0.20;;;;;;;;;;2071680;28;20042;-73
2022/07/18 00:28:04;;;;;;;0.30;0.30;;;;;;;;;;2075322;28;20025;-73
2022/07/18 00:29:23;;;;;;;0.20;0.20;;;;;;;;;;2079021;28;20034;-73
2022/07/18 00:30:42;;;;;;;0.25;0.25;;;;;;;;;;2077048;28;20430;-73
2022/07/18 00:32:01;;;;;;;0.52;0.30;;;;;;;;;;2079172;28;20021;-74
2022/07/18 00:33:20;;;;;;;1.25;0.20;;;;;;;;;;2080647;28;20037;-75
2022/07/18 00:34:39;;;;;;;0.63;0.30;;;;;;;;;;2080390;28;20430;-74
2022/07/18 00:35:58;;;;;;;0.25;0.10;;;;;;;;;;2079097;28;20124;-73
2022/07/18 00:37:17;;;;;;;0.20;0.20;;;;;;;;;;2070592;28;20038;-76
2022/07/18 00:38:36;;;;;;;0.20;0.20;;;;;;;;;;2077370;28;20026;-72
2022/07/18 00:39:55;;;;;;;0.20;0.20;;;;;;;;;;2070667;28;20050;-73
2022/07/18 00:41:15;;;;;;;0.30;0.20;;;;;;;;;;2072098;28;20030;-72
2022/07/18 00:42:34;;;;;;;0.30;0.25;;;;;;;;;;2079493;28;20109;-72
2022/07/18 00:43:53;;;;;;;0.50;0.30;;;;;;;;;;2079992;28;20033;-73
2022/07/18 00:45:11;;;;;;;0.40;0.20;;;;;;;;;;2070649;28;20025;-73
2022/07/18 00:46:30;;;;;;;0.57;0.28;;;;;;;;;;2068512;28;20038;-73
2022/07/18 00:47:52;;;;;;;1.65;0.28;;;;;;;;;;2076200;28;20033;-72
2022/07/18 00:49:11;;;;;;;0.38;0.22;;;;;;;;;;2078961;28;20034;-75
2022/07/18 00:50:30;;;;;;;0.38;0.20;;;;;;;;;;2080020;28;20057;-72
2022/07/18 00:51:49;;;;;;;1.77;0.32;;;;;;;;;;2080032;28;20391;-73
2022/07/18 00:53:10;;;;;;;0.40;0.22;;;;;;;;;;2071650;28;20030;-75
2022/07/18 00:54:31;;;;;;;0.43;0.30;;;;;;;;;;2066979;28;20026;-74
2022/07/18 00:55:51;;;;;;;1.42;0.55;;;;;;;;;;2077060;28;20026;-73
2022/07/18 00:57:12;;;;;;;0.20;0.20;;;;;;;;;;2070988;28;20112;-73
2022/07/18 00:58:30;;;;;;;0.57;0.20;;;;;;;;;;2076333;28;20499;-73
2022/07/18 01:01:42;;;;;;;0.55;0.30;;;;;;;;;;2077781;28;20398;-74
2022/07/18 01:03:01;;;;;;;0.32;0.30;;;;;;;;;;2080470;28;20053;-73
2022/07/18 01:04:21;;;;;;;0.57;0.20;;;;;;;;;;2080379;28;20439;-73
2022/07/18 01:05:40;;;;;;;0.47;0.30;;;;;;;;;;2075835;28;20081;-73
2022/07/18 01:06:59;;;;;;;0.20;0.20;;;;;;;;;;2071636;28;20042;-73
2022/07/18 01:08:18;;;;;;;1.20;0.20;;;;;;;;;;2076611;28;20025;-73
2022/07/18 01:09:37;;;;;;;0.20;0.20;;;;;;;;;;2078203;28;20029;-73
2022/07/18 01:10:56;;;;;;;0.52;0.22;;;;;;;;;;2080676;28;20037;-73
2022/07/18 01:12:15;;;;;;;0.20;0.20;;;;;;;;;;2071060;28;20511;-73
2022/07/18 01:13:34;;;;;;;0.30;0.20;;;;;;;;;;2075534;28;20120;-73
2022/07/18 01:14:53;;;;;;;0.20;0.20;;;;;;;;;;2080735;28;20029;-73
2022/07/18 01:16:13;;;;;;;0.75;0.30;;;;;;;;;;2079274;28;20038;-74
2022/07/18 01:17:33;;;;;;;1.02;0.30;;;;;;;;;;2079863;28;20472;-74
2022/07/18 01:18:52;;;;;;;0.25;0.25;;;;;;;;;;2072137;28;20026;-74
2022/07/18 01:20:11;;;;;;;0.52;0.43;;;;;;;;;;2067801;28;20100;-74
2022/07/18 01:21:30;;;;;;;0.40;0.30;;;;;;;;;;2075278;28;20033;-74
2022/07/18 01:22:49;;;;;;;1.23;0.30;;;;;;;;;;2071658;28;20026;-73
2022/07/18 01:24:08;;;;;;;0.45;0.30;;;;;;;;;;2075472;28;20021;-73
2022/07/18 01:25:27;;;;;;;0.40;0.20;;;;;;;;;;2078033;28;20505;-73
2022/07/18 01:26:47;;;;;;;1.95;0.30;;;;;;;;;;2080668;28;20041;-74
2022/07/18 01:28:06;;;;;;;0.63;0.30;;;;;;;;;;2080079;28;20402;-73
2022/07/18 01:29:24;;;;;;;0.35;0.30;;;;;;;;;;2078084;28;20034;-74
2022/07/18 01:30:43;;;;;;;0.50;0.22;;;;;;;;;;2076588;28;20030;-74
2022/07/18 01:32:09;;;;;;;2.88;0.30;;;;;;;;;;2079073;28;20041;-75
2022/07/18 01:33:27;;;;;;;5.70;0.30;;;;;;;;;;2070786;28;20492;-74
2022/07/18 01:34:46;;;;;;;0.47;0.30;;;;;;;;;;2070339;28;20049;-73
2022/07/18 01:36:06;;;;;;;0.40;0.30;;;;;;;;;;2071230;28;20034;-73
2022/07/18 01:37:25;;;;;;;0.45;0.38;;;;;;;;;;2071199;28;20050;-73
2022/07/18 01:38:44;;;;;;;0.65;0.40;;;;;;;;;;2063473;28;20587;-73
2022/07/18 01:40:07;;;;;;;0.90;0.30;;;;;;;;;;2065090;28;20029;-73
2022/07/18 01:41:26;;;;;;;0.40;0.30;;;;;;;;;;2071084;28;20108;-73
2022/07/18 01:42:45;;;;;;;0.43;0.32;;;;;;;;;;2062390;28;20038;-73
2022/07/18 01:44:04;;;;;;;0.30;0.30;;;;;;;;;;2063017;28;20034;-74
2022/07/18 01:45:22;;;;;;;2.42;0.60;;;;;;;;;;2065975;28;20031;-73
2022/07/18 01:46:42;;;;;;;1.27;0.20;;;;;;;;;;2072544;28;20510;-72
2022/07/18 01:48:01;;;;;;;0.38;0.30;;;;;;;;;;2063331;28;20030;-73
2022/07/18 01:49:20;;;;;;;0.50;0.35;;;;;;;;;;2064580;28;20536;-76
2022/07/18 01:50:39;;;;;;;0.20;0.20;;;;;;;;;;2068058;28;20026;-73
2022/07/18 01:51:59;;;;;;;0.52;0.30;;;;;;;;;;2072040;28;20026;-74
2022/07/18 01:53:18;;;;;;;0.30;0.30;;;;;;;;;;2063674;28;20027;-72
2022/07/18 01:54:37;;;;;;;0.28;0.28;;;;;;;;;;2070338;28;20496;-73
2022/07/18 01:55:56;;;;;;;0.50;0.50;;;;;;;;;;2073094;28;20053;-73
2022/07/18 01:57:15;;;;;;;0.70;0.22;;;;;;;;;;2073617;28;20128;-74
2022/07/18 01:58:34;;;;;;;0.95;0.35;;;;;;;;;;2073078;28;20034;-73
2022/07/18 01:59:53;;;;;;;0.80;0.52;;;;;;;;;;2070992;28;20030;-73
2022/07/18 02:01:12;;;;;;;0.85;0.32;;;;;;;;;;2073710;28;20026;-73
2022/07/18 02:02:31;;;;;;;0.38;0.20;;;;;;;;;;2073942;28;20029;-73
2022/07/18 02:03:50;;;;;;;0.65;0.50;;;;;;;;;;2072519;28;20476;-73
2022/07/18 02:05:09;;;;;;;0.40;0.40;;;;;;;;;;2072172;28;20034;-73
2022/07/18 02:06:28;;;;;;;0.32;0.30;;;;;;;;;;2072395;28;20025;-72
2022/07/18 02:07:46;;;;;;;0.55;0.40;;;;;;;;;;2073136;28;20034;-74
2022/07/18 02:09:06;;;;;;;1.80;0.50;;;;;;;;;;2073437;28;20416;-72
2022/07/18 02:10:25;;;;;;;0.22;0.20;;;;;;;;;;2065009;28;20047;-73
2022/07/18 02:11:47;;;;;;;0.30;0.30;;;;;;;;;;2068848;28;20105;-73
2022/07/18 02:13:06;;;;;;;0.43;0.40;;;;;;;;;;2072241;28;20022;-72
2022/07/18 02:14:25;;;;;;;1.05;0.38;;;;;;;;;;2065320;28;20082;-73
2022/07/18 02:15:44;;;;;;;1.65;0.35;;;;;;;;;;2063080;28;20026;-72
2022/07/18 02:17:03;;;;;;;0.47;0.40;;;;;;;;;;2063058;28;20499;-73
2022/07/18 02:18:21;;;;;;;1.05;0.65;;;;;;;;;;2070275;28;20476;-73
2022/07/18 02:19:40;;;;;;;1.02;0.32;;;;;;;;;;2073336;28;20034;-73
2022/07/18 02:21:00;;;;;;;0.50;0.50;;;;;;;;;;2064499;28;20034;-73
2022/07/18 02:22:18;;;;;;;0.38;0.30;;;;;;;;;;2069345;28;20030;-73
2022/07/18 02:23:37;;;;;;;0.95;0.40;;;;;;;;;;2064658;28;20030;-73
2022/07/18 02:24:56;;;;;;;4.45;0.30;;;;;;;;;;2064605;28;20022;-74
2022/07/18 02:26:15;;;;;;;1.13;0.30;;;;;;;;;;2069094;28;20018;-74
2022/07/18 02:27:34;;;;;;;2.85;0.43;;;;;;;;;;2073701;28;20042;-73
2022/07/18 02:28:53;;;;;;;2.30;0.70;;;;;;;;;;2064435;28;20038;-74
2022/07/18 02:30:11;;;;;;;1.55;0.40;;;;;;;;;;2065112;28;20037;-75
2022/07/18 02:31:30;;;;;;;0.30;0.30;;;;;;;;;;2073135;28;20484;-74
2022/07/18 02:32:49;;;;;;;0.70;0.40;;;;;;;;;;2072530;28;20491;-74
2022/07/18 02:34:11;;;;;;;0.28;0.20;;;;;;;;;;2063950;28;20027;-74
2022/07/18 02:35:30;;;;;;;0.30;0.30;;;;;;;;;;2061559;28;20113;-73
2022/07/18 02:36:50;;;;;;;1.30;0.47;;;;;;;;;;2069802;28;20034;-74
2022/07/18 02:38:09;;;;;;;2.17;0.50;;;;;;;;;;2071964;28;20021;-75
2022/07/18 02:39:28;;;;;;;0.80;0.40;;;;;;;;;;2072743;28;20026;-75
2022/07/18 02:40:47;;;;;;;0.40;0.40;;;;;;;;;;2072637;28;20038;-73
2022/07/18 02:42:06;;;;;;;0.50;0.40;;;;;;;;;;2072304;28;20026;-73
2022/07/18 02:43:25;;;;;;;1.00;0.50;;;;;;;;;;2071350;28;20100;-74
2022/07/18 02:44:45;;;;;;;0.40;0.40;;;;;;;;;;2073394;28;20033;-73
2022/07/18 02:46:04;;;;;;;0.30;0.20;;;;;;;;;;2072476;28;20018;-73
2022/07/18 02:47:23;;;;;;;0.47;0.35;;;;;;;;;;2072257;28;20503;-74
2022/07/18 02:48:42;;;;;;;0.68;0.40;;;;;;;;;;2072806;28;20041;-73
2022/07/18 02:50:01;;;;;;;0.40;0.35;;;;;;;;;;2072936;28;20077;-74
2022/07/18 02:51:20;;;;;;;0.30;0.30;;;;;;;;;;2073101;28;20034;-73
2022/07/18 02:52:40;;;;;;;2.03;0.40;;;;;;;;;;2072869;28;20396;-74
2022/07/18 02:53:59;;;;;;;2.65;0.68;;;;;;;;;;2072426;28;20025;-73
2022/07/18 02:55:18;;;;;;;0.60;0.60;;;;;;;;;;2071993;28;20475;-74
2022/07/18 02:56:37;;;;;;;3.13;0.70;;;;;;;;;;2073302;28;20038;-73
2022/07/18 02:57:56;;;;;;;0.73;0.43;;;;;;;;;;2063124;28;20034;-73
2022/07/18 02:59:14;;;;;;;1.85;0.40;;;;;;;;;;2068981;28;20033;-72
2022/07/18 03:00:33;;;;;;;1.40;0.52;;;;;;;;;;2071988;28;20034;-74
2022/07/18 03:01:53;;;;;;;1.35;0.60;;;;;;;;;;2072012;28;20438;-73
2022/07/18 03:03:12;;;;;;;1.55;0.32;;;;;;;;;;2071208;28;20034;-72
2022/07/18 03:04:31;;;;;;;0.77;0.40;;;;;;;;;;2073468;28;20462;-72
2022/07/18 03:05:50;;;;;;;0.38;0.38;;;;;;;;;;2072143;28;20022;-72
2022/07/18 03:07:08;;;;;;;0.40;0.40;;;;;;;;;;2064168;28;20042;-72
2022/07/18 03:08:27;;;;;;;0.40;0.40;;;;;;;;;;2061610;28;20034;-73
2022/07/18 03:09:47;;;;;;;1.23;0.50;;;;;;;;;;2067617;28;20030;-72
2022/07/18 03:11:06;;;;;;;0.40;0.30;;;;;;;;;;2073174;28;20046;-72
2022/07/18 03:12:25;;;;;;;0.30;0.30;;;;;;;;;;2072427;28;20034;-73
2022/07/18 03:13:44;;;;;;;1.48;0.30;;;;;;;;;;2072675;28;20030;-73
2022/07/18 03:15:03;;;;;;;0.43;0.38;;;;;;;;;;2073386;28;20038;-76
2022/07/18 03:16:22;;;;;;;0.88;0.50;;;;;;;;;;2073368;28;20435;-73
2022/07/18 03:17:41;;;;;;;0.40;0.40;;;;;;;;;;2071142;28;20050;-73
2022/07/18 03:19:00;;;;;;;0.40;0.40;;;;;;;;;;2072809;28;20034;-76
2022/07/18 03:20:19;;;;;;;0.57;0.50;;;;;;;;;;2073021;28;20484;-72
2022/07/18 03:21:37;;;;;;;0.98;0.55;;;;;;;;;;2072878;28;20030;-73
2022/07/18 03:22:56;;;;;;;0.80;0.40;;;;;;;;;;2072296;28;20038;-72
2022/07/18 03:24:15;;;;;;;0.40;0.40;;;;;;;;;;2072411;28;20563;-72
2022/07/18 03:25:34;;;;;;;1.92;0.35;;;;;;;;;;2063062;28;20047;-73
2022/07/18 03:26:53;;;;;;;0.50;0.50;;;;;;;;;;2068195;28;20026;-73
2022/07/18 03:28:12;;;;;;;0.75;0.50;;;;;;;;;;2072093;28;20960;-72
2022/07/18 03:29:31;;;;;;;0.70;0.32;;;;;;;;;;2071637;28;20034;-73
2022/07/18 03:30:50;;;;;;;0.77;0.55;;;;;;;;;;2071543;28;20026;-72
2022/07/18 03:32:08;;;;;;;1.60;0.50;;;;;;;;;;2063787;28;20030;-73
2022/07/18 03:33:27;;;;;;;1.60;0.40;;;;;;;;;;2068272;28;20419;-73
2022/07/18 03:34:46;;;;;;;1.13;0.50;;;;;;;;;;2063976;28;20463;-73
2022/07/18 03:36:05;;;;;;;0.60;0.47;;;;;;;;;;2066904;28;20030;-72
2022/07/18 03:37:24;;;;;;;1.15;0.40;;;;;;;;;;2071263;28;20149;-75
2022/07/18 03:38:43;;;;;;;0.50;0.50;;;;;;;;;;2063959;28;20030;-72
2022/07/18 03:40:02;;;;;;;1.52;0.50;;;;;;;;;;2067799;28;20026;-73
2022/07/18 03:41:21;;;;;;;0.50;0.40;;;;;;;;;;2072520;28;20029;-75
2022/07/18 03:42:40;;;;;;;0.40;0.40;;;;;;;;;;2073028;28;20034;-73
2022/07/18 03:43:59;;;;;;;1.83;0.43;;;;;;;;;;2071447;28;20120;-73
2022/07/18 03:45:18;;;;;;;2.25;0.50;;;;;;;;;;2063771;28;20524;-72
2022/07/18 03:46:37;;;;;;;0.50;0.50;;;;;;;;;;2069476;28;20042;-73
2022/07/18 03:47:56;;;;;;;0.40;0.40;;;;;;;;;;2063773;28;20105;-73
2022/07/18 03:49:14;;;;;;;1.83;0.43;;;;;;;;;;2059900;28;20101;-73
2022/07/18 03:50:33;;;;;;;0.60;0.60;;;;;;;;;;2063904;28;20583;-74
2022/07/18 03:51:55;;;;;;;0.90;0.50;;;;;;;;;;2068632;28;20030;-73
2022/07/18 03:53:14;;;;;;;0.40;0.40;;;;;;;;;;2070625;28;20022;-74
2022/07/18 03:54:33;;;;;;;0.50;0.40;;;;;;;;;;2072961;28;20385;-73
2022/07/18 03:55:52;;;;;;;0.73;0.52;;;;;;;;;;2072709;28;20974;-73
2022/07/18 03:57:11;;;;;;;1.73;0.55;;;;;;;;;;2073005;28;20487;-73
2022/07/18 03:58:30;;;;;;;0.63;0.40;;;;;;;;;;2072422;28;20101;-74
2022/07/18 03:59:49;;;;;;;0.57;0.50;;;;;;;;;;2063147;28;20023;-73
2022/07/18 04:01:08;;;;;;;0.77;0.40;;;;;;;;;;2069749;28;20414;-73
2022/07/18 04:02:27;;;;;;;0.82;0.50;;;;;;;;;;2071259;28;20467;-74
2022/07/18 04:03:46;;;;;;;0.85;0.47;;;;;;;;;;2072401;28;20116;-75
2022/07/18 04:05:05;;;;;;;1.05;0.60;;;;;;;;;;2073027;28;20396;-74
2022/07/18 04:06:24;;;;;;;0.98;0.70;;;;;;;;;;2063527;28;20030;-73
2022/07/18 04:07:43;;;;;;;0.75;0.70;;;;;;;;;;2060144;28;20476;-74
2022/07/18 04:09:02;;;;;;;1.17;0.50;;;;;;;;;;2068623;28;20510;-74
2022/07/18 04:10:21;;;;;;;0.60;0.60;;;;;;;;;;2072384;28;20116;-74
2022/07/18 04:11:40;;;;;;;0.52;0.52;;;;;;;;;;2072548;28;20033;-74
2022/07/18 04:12:58;;;;;;;1.13;0.50;;;;;;;;;;2072121;28;20054;-74
2022/07/18 04:14:17;;;;;;;2.42;0.50;;;;;;;;;;2071596;28;20057;-74
2022/07/18 04:15:37;;;;;;;0.60;0.50;;;;;;;;;;2062781;28;20038;-74
2022/07/18 04:16:55;;;;;;;1.20;0.60;;;;;;;;;;2060768;28;20039;-77
2022/07/18 04:18:14;;;;;;;1.67;0.75;;;;;;;;;;2069210;28;20034;-74
2022/07/18 04:19:34;;;;;;;1.00;0.73;;;;;;;;;;2071123;28;20097;-74
2022/07/18 04:20:53;;;;;;;1.23;0.63;;;;;;;;;;2063040;28;20022;-74
2022/07/18 04:22:12;;;;;;;1.73;0.70;;;;;;;;;;2062525;28;20399;-74
2022/07/18 04:23:31;;;;;;;0.90;0.50;;;;;;;;;;2063053;28;20105;-74
2022/07/18 04:24:49;;;;;;;2.38;0.85;;;;;;;;;;2069049;28;20030;-73
2022/07/18 04:26:09;;;;;;;0.77;0.55;;;;;;;;;;2071370;28;20038;-74
2022/07/18 04:27:27;;;;;;;1.27;1.00;;;;;;;;;;2063185;28;20031;-74
2022/07/18 04:28:46;;;;;;;1.63;0.80;;;;;;;;;;2059999;28;20030;-74
2022/07/18 04:30:06;;;;;;;1.38;0.90;;;;;;;;;;2067338;28;20029;-75
2022/07/18 04:31:25;;;;;;;1.38;0.77;;;;;;;;;;2072580;28;20030;-73
2022/07/18 04:32:44;;;;;;;1.17;0.93;;;;;;;;;;2072091;28;20034;-74
2022/07/18 04:34:02;;;;;;;2.28;0.88;;;;;;;;;;2071045;28;20061;-75
2022/07/18 04:35:22;;;;;;;1.65;0.80;;;;;;;;;;2064102;28;20467;-77
2022/07/18 04:36:41;;;;;;;1.08;0.98;;;;;;;;;;2060798;28;20038;-74
2022/07/18 04:37:59;;;;;;;3.85;0.70;;;;;;;;;;2067378;28;20488;-74
2022/07/18 04:39:18;;;;;;;1.27;0.80;;;;;;;;;;2063841;28;20662;-74
2022/07/18 04:40:37;;;;;;;2.22;0.90;;;;;;;;;;2068542;28;20033;-74
2022/07/18 04:41:56;;;;;;;1.45;0.70;;;;;;;;;;2062420;28;20054;-74
2022/07/18 04:43:14;;;;;;;0.85;0.70;;;;;;;;;;2068774;28;20022;-73
2022/07/18 04:44:33;;;;;;;0.90;0.85;;;;;;;;;;2063211;28;20040;-73
2022/07/18 04:45:52;;;;;;;1.95;0.60;;;;;;;;;;2067905;28;20065;-74
2022/07/18 04:47:11;;;;;;;1.33;0.90;;;;;;;;;;2071110;28;20033;-75
2022/07/18 04:48:30;;;;;;;1.00;0.90;;;;;;;;;;2072584;28;20472;-74
2022/07/18 04:49:49;;;;;;;2.95;1.00;;;;;;;;;;2071374;28;20034;-73
2022/07/18 04:51:08;;;;;;;1.58;0.80;;;;;;;;;;2071863;28;20025;-74
2022/07/18 04:52:27;;;;;;;1.15;1.05;;;;;;;;;;2071571;28;20109;-75
2022/07/18 04:53:46;;;;;;;2.67;0.90;;;;;;;;;;2071637;28;20025;-74
2022/07/18 04:55:05;;;;;;;2.58;1.00;;;;;;;;;;2071807;28;20038;-75
2022/07/18 04:56:24;;;;;;;1.17;0.98;;;;;;;;;;2072357;28;20030;-73
2022/07/18 04:57:43;;;;;;;2.40;1.20;;;;;;;;;;2072058;28;20129;-73
2022/07/18 04:59:02;;;;;;;2.03;1.30;;;;;;;;;;2072079;28;20022;-74
2022/07/18 05:00:23;;;;;;;1.33;0.80;;;;;;;;;;2070574;28;20388;-74
2022/07/18 05:01:41;;;;;;;3.25;0.90;;;;;;;;;;2071872;28;20160;-74
2022/07/18 05:03:00;;;;;;;2.58;1.00;;;;;;;;;;2072330;28;20022;-74
2022/07/18 05:04:19;;;;;;;1.83;1.40;;;;;;;;;;2062613;28;20030;-76
2022/07/18 05:05:38;;;;;;;3.50;1.15;;;;;;;;;;2067718;28;20134;-74
2022/07/18 05:06:57;;;;;;;2.70;1.40;;;;;;;;;;2064058;28;20117;-74
2022/07/18 05:08:16;;;;;;;1.35;1.23;;;;;;;;;;2068172;28;20038;-73
2022/07/18 05:09:35;;;;;;;3.25;1.60;;;;;;;;;;2070915;28;20407;-74
2022/07/18 05:10:54;;;;;;;1.17;0.93;;;;;;;;;;2071234;28;20030;-74
2022/07/18 05:12:13;;;;;;;2.20;1.33;;;;;;;;;;2071550;28;20519;-73
2022/07/18 05:13:32;;;;;;;3.45;1.30;;;;;;;;;;2071642;28;20045;-73
2022/07/18 05:14:51;;;;;;;4.00;1.42;;;;;;;;;;2071762;28;20497;-74
2022/07/18 05:16:10;;;;;;;2.03;1.63;;;;;;;;;;2071358;28;20030;-73
2022/07/18 05:17:29;;;;;;;2.47;1.60;;;;;;;;;;2071350;28;20026;-74
2022/07/18 05:18:48;;;;;;;2.05;1.50;;;;;;;;;;2070092;28;20931;-75
2022/07/18 05:20:08;;;;;;;2.50;1.67;;;;;;;;;;2070184;28;20503;-76
2022/07/18 05:21:27;;;;;;;1.77;1.25;;;;;;;;;;2069748;28;20034;-74
2022/07/18 05:22:47;;;;;;;3.05;1.50;;;;;;;;;;2070828;28;20026;-75
2022/07/18 05:24:05;;;;;;;4.32;1.77;;;;;;;;;;2070591;28;20495;-74
2022/07/18 05:25:25;;;;;;;4.32;1.98;;;;;;;;;;2071045;28;20057;-75
2022/07/18 05:26:44;;;;;;;3.97;1.75;;;;;;;;;;2073135;28;20034;-73
2022/07/18 05:28:03;;;;;;;4.05;2.15;;;;;;;;;;2063854;28;20027;-74
2022/07/18 05:29:23;;;;;;;2.70;1.75;;;;;;;;;;2069749;28;20403;-73
2022/07/18 05:30:42;;;;;;;6.97;1.98;;;;;;;;;;2070666;28;20069;-75
2022/07/18 05:32:01;;;;;;;5.20;1.90;;;;;;;;;;2071996;28;20022;-73
2022/07/18 05:33:20;;;;;;;6.55;2.60;;;;;;;;;;2073177;28;20026;-73
2022/07/18 05:34:39;;;;;;;3.45;1.67;;;;;;;;;;2076497;28;20046;-76
2022/07/18 05:35:58;;;;;;;4.07;2.08;;;;;;;;;;2080336;28;20029;-74
2022/07/18 05:37:17;;;;;;;3.25;1.67;;;;;;;;;;2073638;28;20029;-75
2022/07/18 05:38:36;;;;;;;5.22;1.67;;;;;;;;;;2068249;28;20026;-77
2022/07/18 05:39:55;;;;;;;5.47;1.88;;;;;;;;;;2075839;28;20029;-74
2022/07/18 05:41:14;;;;;;;6.75;2.20;;;;;;;;;;2070100;28;20030;-74
2022/07/18 05:42:33;;;;;;;3.63;1.98;;;;;;;;;;2077081;28;20025;-75
2022/07/18 05:43:52;;;;;;;3.67;2.33;;;;;;;;;;2073245;28;20045;-74
2022/07/18 05:45:11;;;;;;;1.95;1.80;;;;;;;;;;2068073;28;20018;-75
2022/07/18 05:46:30;;;;;;;3.88;2.28;;;;;;;;;;2078768;28;20034;-74
2022/07/18 05:47:49;;;;;;;6.10;2.13;;;;;;;;;;2072407;28;20034;-74
2022/07/18 05:49:07;;;;;;;7.82;2.13;;;;;;;;;;2078685;28;20108;-74
2022/07/18 05:50:27;;;;;;;5.60;2.30;;;;;;;;;;2082347;28;20499;-74
2022/07/18 05:51:46;;;;;;;3.40;1.88;;;;;;;;;;2072187;28;20045;-74
2022/07/18 05:53:04;;;;;;;6.93;2.28;;;;;;;;;;2069425;28;20026;-74
2022/07/18 05:54:23;;;;;;;6.78;2.60;;;;;;;;;;2077897;28;20030;-75
2022/07/18 05:55:42;;;;;;;5.60;2.10;;;;;;;;;;2081273;28;20041;-73
2022/07/18 05:57:01;;;;;;;4.80;2.50;;;;;;;;;;2081762;28;20030;-74
2022/07/18 05:58:20;;;;;;;4.35;1.80;;;;;;;;;;2073088;28;20104;-74
2022/07/18 05:59:39;;;;;;;3.70;2.10;;;;;;;;;;2077691;28;20049;-76
2022/07/18 06:00:58;;;;;;;3.92;2.25;;;;;;;;;;2080955;28;20383;-75
2022/07/18 06:02:17;;;;;;;5.93;2.53;;;;;;;;;;2073744;28;20025;-75
2022/07/18 06:03:36;;;;;;;7.68;2.53;;;;;;;;;;2077775;28;20026;-73
2022/07/18 06:04:57;;;;;;;6.55;2.60;;;;;;;;;;2081002;28;20037;-75
2022/07/18 06:06:18;;;;;;;8.48;2.80;;;;;;;;;;2072678;28;20054;-75
2022/07/18 06:07:37;;;;;;;4.38;2.22;;;;;;;;;;2069565;28;20026;-75
2022/07/18 06:08:56;;;;;;;2.65;2.28;;;;;;;;;;2077145;28;20041;-74
2022/07/18 06:10:15;;;;;;;6.53;2.70;;;;;;;;;;2081805;28;20033;-74
2022/07/18 06:11:34;;;;;;;5.40;2.40;;;;;;;;;;2069537;28;20053;-75
2022/07/18 06:12:53;;;;;;;5.50;2.50;;;;;;;;;;2075955;28;20470;-78
2022/07/18 06:14:12;;;;;;;4.93;2.30;;;;;;;;;;2079410;28;20041;-73
2022/07/18 06:15:31;;;;;;;7.70;2.17;;;;;;;;;;2079379;28;20612;-75
2022/07/18 06:16:50;;;;;;;6.05;2.65;;;;;;;;;;2071658;28;20042;-74
2022/07/18 06:18:09;;;;;;;7.07;2.33;;;;;;;;;;2078033;28;20482;-74
2022/07/18 06:19:28;;;;;;;3.88;2.17;;;;;;;;;;2081574;28;20026;-74
2022/07/18 06:20:47;;;;;;;5.15;2.95;;;;;;;;;;2079852;28;20025;-74
2022/07/18 06:22:06;;;;;;;6.32;2.33;;;;;;;;;;2081171;28;20061;-74
2022/07/18 06:23:25;;;;;;;5.70;2.58;;;;;;;;;;2072787;28;20030;-73
2022/07/18 06:24:43;;;;;;;4.75;2.42;;;;;;;;;;2069549;28;20026;-73
2022/07/18 06:26:02;;;;;;;5.82;2.50;;;;;;;;;;2077453;28;20029;-77
2022/07/18 06:27:21;;;;;;;8.95;2.60;;;;;;;;;;2080482;28;20550;-74
2022/07/18 06:28:40;;;;;;;8.25;2.97;;;;;;;;;;2081388;28;20041;-73
2022/07/18 06:29:59;;;;;;;3.97;2.10;;;;;;;;;;2080998;28;20030;-74
2022/07/18 06:31:20;;;;;;;7.90;2.55;;;;;;;;;;2081729;28;20029;-73
2022/07/18 06:32:39;;;;;;;7.78;2.55;;;;;;;;;;2072517;28;20026;-73
2022/07/18 06:33:58;;;;;;;5.18;2.20;;;;;;;;;;2069357;28;20030;-73
2022/07/18 06:35:17;;;;;;;8.63;2.90;;;;;;;;;;2068998;28;20061;-72
2022/07/18 06:36:36;;;;;;;6.28;2.30;;;;;;;;;;2076727;28;20025;-73
2022/07/18 06:37:55;;;;;;;5.40;2.55;;;;;;;;;;2080612;28;20482;-73
2022/07/18 06:39:16;;;;;;;6.28;2.53;;;;;;;;;;2082027;28;20029;-74
2022/07/18 06:40:35;;;;;;;4.40;2.60;;;;;;;;;;2081498;28;20029;-74
2022/07/18 06:41:54;;;;;;;4.35;2.17;;;;;;;;;;2070887;28;20109;-74
2022/07/18 06:43:18;;;;;;;6.45;2.47;;;;;;;;;;2077365;28;20057;-73
2022/07/18 06:44:37;;;;;;;5.53;2.20;;;;;;;;;;2082460;28;20030;-73
2022/07/18 06:45:57;;;;;;;8.82;2.60;;;;;;;;;;2081395;28;20120;-73
2022/07/18 06:47:16;;;;;;;6.00;3.28;;;;;;;;;;2072838;28;20034;-74
2022/07/18 06:48:36;;;;;;;9.25;2.92;;;;;;;;;;2068699;28;20037;-75
2022/07/18 06:49:54;;;;;;;8.13;2.80;;;;;;;;;;2075515;28;20030;-77
2022/07/18 06:51:14;;;;;;;6.20;2.83;;;;;;;;;;2072179;28;20030;-74
2022/07/18 06:52:32;;;;;;;9.85;3.10;;;;;;;;;;2077921;28;20037;-75
2022/07/18 06:53:51;;;;;;;5.43;3.10;;;;;;;;;;2081393;28;20033;-75
2022/07/18 06:55:11;;;;;;;5.88;2.80;;;;;;;;;;2072103;28;20038;-73
2022/07/18 06:56:30;;;;;;;6.80;2.95;;;;;;;;;;2076808;28;20034;-75
2022/07/18 06:57:49;;;;;;;6.05;2.40;;;;;;;;;;2080938;28;20478;-75
2022/07/18 06:59:08;;;;;;;5.60;2.65;;;;;;;;;;2081029;28;20592;-75
2022/07/18 07:00:27;;;;;;;5.95;2.50;;;;;;;;;;2081535;28;20037;-74
2022/07/18 07:01:46;;;;;;;6.50;2.97;;;;;;;;;;2072557;28;20029;-75
2022/07/18 07:03:04;;;;;;;4.75;2.42;;;;;;;;;;2070627;28;20069;-75
2022/07/18 07:04:23;;;;;;;5.82;2.72;;;;;;;;;;2075754;28;20085;-74
2022/07/18 07:05:42;;;;;;;4.40;2.60;;;;;;;;;;2072547;28;20030;-75
2022/07/18 07:07:01;;;;;;;6.35;2.85;;;;;;;;;;2073086;28;20021;-74
2022/07/18 07:08:20;;;;;;;8.30;3.08;;;;;;;;;;2077395;28;20041;-74
2022/07/18 07:09:39;;;;;;;4.57;2.97;;;;;;;;;;2081019;28;20056;-74
2022/07/18 07:10:58;;;;;;;9.30;3.00;;;;;;;;;;2081744;28;20053;-75
2022/07/18 07:12:17;;;;;;;9.57;3.08;;;;;;;;;;2080539;28;20029;-73
2022/07/18 07:13:36;;;;;;;8.77;2.75;;;;;;;;;;2071650;28;20116;-73
2022/07/18 07:14:55;;;;;;;6.25;2.50;;;;;;;;;;2076608;28;20033;-75
2022/07/18 07:16:14;;;;;;;5.88;2.53;;;;;;;;;;2080336;28;20029;-76
2022/07/18 07:17:33;;;;;;;5.80;2.47;;;;;;;;;;2081537;28;20561;-74
2022/07/18 07:18:52;;;;;;;6.80;2.85;;;;;;;;;;2071807;28;20042;-76
2022/07/18 07:20:11;;;;;;;5.32;2.97;;;;;;;;;;2076558;28;20530;-73
2022/07/18 07:21:30;;;;;;;8.07;2.85;;;;;;;;;;2078941;28;20025;-74
2022/07/18 07:22:50;;;;;;;6.35;2.75;;;;;;;;;;2072508;28;20045;-77
2022/07/18 07:24:09;;;;;;;5.38;2.85;;;;;;;;;;2078081;28;20100;-74
2022/07/18 07:25:27;;;;;;;4.70;2.60;;;;;;;;;;2081992;28;20032;-73
2022/07/18 07:26:47;;;;;;;5.70;2.55;;;;;;;;;;2080865;28;20026;-75
2022/07/18 07:28:06;;;;;;;4.28;2.53;;;;;;;;;;2079963;28;20029;-74
2022/07/18 07:29:24;;;;;;;3.67;2.55;;;;;;;;;;2081093;28;20037;-74
2022/07/18 07:30:44;;;;;;;5.80;2.47;;;;;;;;;;2080278;28;20487;-75
2022/07/18 07:32:03;;;;;;;6.97;2.13;;;;;;;;;;2081003;28;20482;-74
2022/07/18 07:33:21;;;;;;;6.57;3.33;;;;;;;;;;2080712;28;20026;-74
2022/07/18 07:34:41;;;;;;;4.65;2.63;;;;;;;;;;2072161;28;20042;-73
2022/07/18 07:36:00;;;;;;;5.28;2.72;;;;;;;;;;2076490;28;20030;-74
2022/07/18 07:37:19;;;;;;;5.68;2.72;;;;;;;;;;2080032;28;20041;-77
2022/07/18 07:38:38;;;;;;;6.22;2.63;;;;;;;;;;2079635;28;20037;-74
2022/07/18 07:39:57;;;;;;;4.20;2.70;;;;;;;;;;2080462;28;20037;-74
2022/07/18 07:41:15;;;;;;;6.28;2.63;;;;;;;;;;2081334;28;20367;-74
2022/07/18 07:42:35;;;;;;;4.60;2.40;;;;;;;;;;2080626;28;20041;-74
2022/07/18 07:43:54;;;;;;;3.10;2.30;;;;;;;;;;2080483;28;20056;-74
2022/07/18 07:45:13;;;;;;;3.95;2.20;;;;;;;;;;2071477;28;20029;-75
2022/07/18 07:46:32;;;;;;;3.97;2.35;;;;;;;;;;2077465;28;20395;-74
2022/07/18 07:47:51;;;;;;;3.25;2.00;;;;;;;;;;2079558;28;20037;-73
2022/07/18 07:49:09;;;;;;;2.70;2.20;;;;;;;;;;2080118;28;20029;-76
2022/07/18 07:50:29;;;;;;;3.40;2.47;;;;;;;;;;2081564;28;20065;-74
2022/07/18 07:51:48;;;;;;;3.38;2.30;;;;;;;;;;2072989;28;20029;-74
2022/07/18 07:53:07;;;;;;;4.50;2.40;;;;;;;;;;2072681;28;20037;-73
2022/07/18 07:54:26;;;;;;;4.93;2.47;;;;;;;;;;2072278;28;20033;-74
2022/07/18 07:55:45;;;;;;;6.38;2.60;;;;;;;;;;2074794;28;20440;-74